createdAt,value
2019-02-27T07:04:46.689Z,12204.00
2019-02-27T07:05:45.532Z,12612.00
2019-02-27T07:06:44.621Z,12676.00
2019-02-27T07:07:44.603Z,12352.00
2019-02-27T07:08:44.592Z,14428.00
2019-02-27T07:09:45.807Z,15200.00
2019-02-27T07:10:44.577Z,15712.00
2019-02-27T07:11:46.381Z,16352.00
2019-02-27T07:12:44.549Z,15904.00
2019-02-27T07:13:44.537Z,17632.00
2019-02-27T07:14:44.533Z,17440.00
2019-02-27T07:15:47.733Z,16416.00
2019-02-27T07:16:44.511Z,16608.00
2019-02-27T07:17:44.498Z,17504.00
2019-02-27T07:18:44.485Z,18432.00
2019-02-27T07:19:44.475Z,19296.00
2019-02-27T07:20:44.465Z,18944.00
2019-02-27T07:21:44.453Z,18368.00
2019-02-27T07:22:46.571Z,19392.00
2019-02-27T07:23:44.434Z,18976.00
2019-02-27T07:24:44.422Z,19584.00
2019-02-27T07:25:44.409Z,20256.00
2019-02-27T07:26:44.401Z,20544.00
2019-02-27T07:27:44.389Z,21568.00
2019-02-27T07:28:44.381Z,22688.00
2019-02-27T07:29:44.365Z,23520.00
2019-02-27T07:30:44.366Z,23712.00
2019-02-27T07:31:44.343Z,23488.00
2019-02-27T07:32:44.353Z,22720.00
2019-02-27T07:33:44.322Z,23520.00
2019-02-27T07:34:46.752Z,26592.00
2019-02-27T07:35:45.303Z,32032.00
2019-02-27T07:36:44.288Z,31776.00
2019-02-27T07:37:47.179Z,30368.00
2019-02-27T07:38:44.268Z,31296.00
2019-02-27T07:39:44.257Z,32704.00
2019-02-27T07:40:44.243Z,34592.00
2019-02-27T07:41:44.233Z,39456.00
2019-02-27T07:42:44.242Z,43456.00
2019-02-27T07:43:44.220Z,40928.00
2019-02-27T07:44:44.202Z,39680.00
2019-02-27T07:45:45.551Z,37792.00
2019-02-27T07:46:44.183Z,35264.00
2019-02-27T07:47:44.172Z,37504.00
2019-02-27T07:48:44.720Z,46080.00
2019-02-27T07:49:44.171Z,49184.00
2019-02-27T07:50:48.347Z,49344.00
2019-02-27T07:51:44.129Z,45024.00
2019-02-27T07:52:44.140Z,43104.00
2019-02-27T07:53:44.105Z,33568.00
2019-02-27T07:54:44.117Z,25408.00
2019-02-27T07:55:44.084Z,22496.00
2019-02-27T07:56:44.067Z,21120.00
2019-02-27T07:57:44.072Z,20576.00
2019-02-27T07:58:44.049Z,20256.00
2019-02-27T07:59:44.038Z,20128.00
2019-02-27T08:00:44.033Z,19968.00
2019-02-27T08:01:44.258Z,19904.00
2019-02-27T08:02:44.006Z,19616.00
2019-02-27T08:03:45.574Z,19616.00
2019-02-27T08:04:43.981Z,19616.00
2019-02-27T08:05:43.966Z,19680.00
2019-02-27T08:06:43.965Z,20160.00
2019-02-27T08:07:48.704Z,20256.00
2019-02-27T08:08:44.937Z,20384.00
2019-02-27T08:09:43.925Z,20448.00
2019-02-27T08:10:45.274Z,20704.00
2019-02-27T08:11:47.104Z,20960.00
2019-02-27T08:12:43.891Z,21312.00
2019-02-27T08:13:43.884Z,21792.00
2019-02-27T08:14:43.874Z,22336.00
2019-02-27T08:15:43.862Z,22880.00
2019-02-27T08:16:43.850Z,24032.00
2019-02-27T08:17:43.860Z,27680.00
2019-02-27T08:18:43.835Z,34432.00
2019-02-27T08:19:45.384Z,40128.00
2019-02-27T08:20:43.807Z,41184.00
2019-02-27T08:21:43.793Z,40832.00
2019-02-27T08:25:10.978Z,46368.00
2019-02-27T08:26:10.882Z,44800.00
2019-02-27T08:27:43.747Z,41376.00
2019-02-27T08:28:41.438Z,40768.00
2019-02-27T08:30:13.809Z,45312.00
2019-02-27T08:31:11.794Z,46560.00
2019-02-27T08:32:11.773Z,48032.00
2019-02-27T08:33:11.765Z,49088.00
2019-02-27T08:34:11.747Z,53536.00
2019-02-27T08:35:11.739Z,57440.00
2019-02-27T08:36:11.728Z,58912.00
2019-02-27T08:37:11.717Z,59744.00
2019-02-27T08:38:11.710Z,58048.00
2019-02-27T08:39:11.700Z,52608.00
2019-02-27T08:40:11.686Z,54080.00
2019-02-27T08:41:11.671Z,54688.00
2019-02-27T08:42:11.664Z,56448.00
2019-02-27T08:43:11.651Z,58976.00
2019-02-27T08:44:12.262Z,61632.00
2019-02-27T08:45:19.233Z,58176.00
2019-02-27T08:46:12.615Z,54112.00
2019-02-27T08:47:11.609Z,53856.00
